createdAt,value
2018-07-16T00:00:44.224Z,19.12
2018-07-16T00:03:13.092Z,19.08
2018-07-16T00:05:42.000Z,19.00
2018-07-16T00:08:10.897Z,18.91
2018-07-16T00:10:39.945Z,18.85
2018-07-16T00:13:09.951Z,18.82
2018-07-16T00:15:38.829Z,18.78
2018-07-16T00:18:07.663Z,18.75
2018-07-16T00:20:36.442Z,18.72
2018-07-16T00:23:05.351Z,18.70
2018-07-16T00:25:35.075Z,18.62
2018-07-16T00:28:04.514Z,18.56
2018-07-16T00:30:33.952Z,18.57
2018-07-16T00:33:03.132Z,18.51
2018-07-16T00:35:32.089Z,18.45
2018-07-16T00:38:00.858Z,18.42
2018-07-16T00:40:30.141Z,18.40
2018-07-16T00:42:59.594Z,18.35
2018-07-16T00:45:28.437Z,18.33
2018-07-16T00:47:57.795Z,18.31
2018-07-16T00:50:26.693Z,18.27
2018-07-16T00:52:55.637Z,18.25
2018-07-16T00:55:24.994Z,18.21
2018-07-16T00:57:53.872Z,18.18
2018-07-16T01:00:23.935Z,18.16
2018-07-16T01:02:54.945Z,18.13
2018-07-16T01:05:23.728Z,18.10
2018-07-16T01:07:52.630Z,18.04
2018-07-16T01:10:21.801Z,18.02
2018-07-16T01:12:50.663Z,18.02
2018-07-16T01:15:20.042Z,17.97
2018-07-16T01:17:49.504Z,17.89
2018-07-16T01:20:18.834Z,17.82
2018-07-16T01:22:47.926Z,17.79
2018-07-16T01:25:16.760Z,17.70
2018-07-16T01:27:46.854Z,17.67
2018-07-16T01:30:15.715Z,17.64
2018-07-16T01:32:44.844Z,17.64
2018-07-16T01:35:13.645Z,17.64
2018-07-16T01:37:42.445Z,17.64
2018-07-16T01:40:11.894Z,17.61
2018-07-16T01:42:41.628Z,17.57
2018-07-16T01:45:10.541Z,17.57
2018-07-16T01:47:40.033Z,17.57
2018-07-16T01:50:08.877Z,17.57
2018-07-16T01:52:37.939Z,17.53
2018-07-16T01:55:07.062Z,17.48
2018-07-16T01:57:35.870Z,17.47
2018-07-16T02:00:04.709Z,17.45
2018-07-16T02:02:33.532Z,17.40
2018-07-16T02:05:02.337Z,17.38
2018-07-16T02:07:31.472Z,17.34
2018-07-16T02:10:00.791Z,17.29
2018-07-16T02:12:29.779Z,17.28
2018-07-16T02:14:59.225Z,17.27
2018-07-16T02:17:28.010Z,17.26
2018-07-16T02:19:56.792Z,17.26
2018-07-16T02:22:26.259Z,17.26
2018-07-16T02:24:55.010Z,17.28
2018-07-16T02:27:24.209Z,17.26
2018-07-16T02:29:53.417Z,17.24
2018-07-16T02:32:22.185Z,17.22
2018-07-16T02:34:51.333Z,17.21
2018-07-16T02:37:20.374Z,17.19
2018-07-16T02:39:49.957Z,17.19
2018-07-16T02:42:18.723Z,17.13
2018-07-16T02:44:47.563Z,17.10
2018-07-16T02:47:16.820Z,17.09
2018-07-16T02:49:45.989Z,17.04
2018-07-16T02:52:15.087Z,17.02
2018-07-16T02:54:44.453Z,16.98
2018-07-16T02:57:13.473Z,16.93
2018-07-16T02:59:42.646Z,16.89
2018-07-16T03:02:12.803Z,16.87
2018-07-16T03:04:42.646Z,16.85
2018-07-16T03:07:12.472Z,16.83
2018-07-16T03:09:42.204Z,16.81
2018-07-16T03:12:12.139Z,16.79
2018-07-16T03:14:42.326Z,16.79
2018-07-16T03:17:11.492Z,16.77
2018-07-16T03:19:40.589Z,16.75
2018-07-16T03:22:09.452Z,16.74
2018-07-16T03:24:38.603Z,16.71
2018-07-16T03:27:07.745Z,16.67
2018-07-16T03:29:36.816Z,16.66
2018-07-16T03:32:05.861Z,16.65
2018-07-16T03:34:35.016Z,16.65
2018-07-16T03:37:04.276Z,16.63
2018-07-16T03:39:33.058Z,16.63
2018-07-16T03:42:02.117Z,16.62
2018-07-16T03:44:31.533Z,16.59
2018-07-16T03:47:00.324Z,16.57
2018-07-16T03:49:29.129Z,16.55
2018-07-16T03:51:58.221Z,16.54
2018-07-16T03:54:27.024Z,16.53
2018-07-16T03:56:56.284Z,16.55
2018-07-16T03:59:25.123Z,16.55
2018-07-16T04:01:53.907Z,16.55
2018-07-16T04:04:25.588Z,16.54
2018-07-16T04:06:54.646Z,16.54
2018-07-16T04:09:23.452Z,16.54
2018-07-16T04:11:52.865Z,16.53
2018-07-16T04:14:21.936Z,16.53
2018-07-16T04:16:51.012Z,16.56
2018-07-16T04:19:20.136Z,16.55
2018-07-16T04:21:48.889Z,16.53
2018-07-16T04:24:17.755Z,16.53
2018-07-16T04:26:46.606Z,16.55
2018-07-16T04:29:15.374Z,16.56
2018-07-16T04:31:44.779Z,16.59
2018-07-16T04:34:13.597Z,16.58
2018-07-16T04:36:43.261Z,16.59
2018-07-16T04:39:12.245Z,16.62
2018-07-16T04:41:41.772Z,16.65
2018-07-16T04:44:11.124Z,16.63
2018-07-16T04:46:40.110Z,16.65
2018-07-16T04:49:09.219Z,16.69
2018-07-16T04:51:38.315Z,16.73
2018-07-16T04:54:07.360Z,16.75
2018-07-16T04:56:36.189Z,16.74
2018-07-16T04:59:05.376Z,16.77
2018-07-16T05:01:34.213Z,16.82
2018-07-16T05:04:05.804Z,16.86
2018-07-16T05:06:34.603Z,16.91
2018-07-16T05:09:03.764Z,16.95
2018-07-16T05:11:33.048Z,17.01
2018-07-16T05:14:02.438Z,17.08
2018-07-16T05:16:31.289Z,17.12
2018-07-16T05:19:00.098Z,17.20
2018-07-16T05:21:29.341Z,17.31
2018-07-16T05:23:58.499Z,17.39
2018-07-16T05:26:29.333Z,17.48
2018-07-16T05:28:58.487Z,17.55
2018-07-16T05:31:27.395Z,17.63
2018-07-16T05:33:56.284Z,17.74
2018-07-16T05:36:27.603Z,17.84
2018-07-16T05:38:58.966Z,17.94
2018-07-16T05:41:27.760Z,18.05
2018-07-16T05:43:56.868Z,18.15
2018-07-16T05:46:25.954Z,18.24
2018-07-16T05:48:54.989Z,18.36
2018-07-16T05:51:24.123Z,18.48
2018-07-16T05:53:52.897Z,18.59
2018-07-16T05:56:22.281Z,18.73
2018-07-16T05:58:51.583Z,18.86
2018-07-16T06:01:20.768Z,18.97
2018-07-16T06:03:49.531Z,19.10
2018-07-16T06:06:18.940Z,19.24
2018-07-16T06:08:48.089Z,19.37
2018-07-16T06:11:17.088Z,19.52
2018-07-16T06:13:46.153Z,19.66
2018-07-16T06:16:15.068Z,19.80
2018-07-16T06:18:43.912Z,19.97
2018-07-16T06:21:12.731Z,20.10
2018-07-16T06:23:41.853Z,20.21
2018-07-16T06:26:10.662Z,20.37
2018-07-16T06:28:40.108Z,20.54
2018-07-16T06:31:08.953Z,20.70
2018-07-16T06:33:38.368Z,20.90
2018-07-16T06:36:07.912Z,21.10
2018-07-16T06:38:37.428Z,21.24
2018-07-16T06:41:06.680Z,21.40
2018-07-16T06:43:35.308Z,21.56
2018-07-16T06:46:04.414Z,21.72
2018-07-16T06:48:33.241Z,21.87
2018-07-16T06:51:02.119Z,22.04
2018-07-16T06:53:31.163Z,22.21
2018-07-16T06:56:00.854Z,22.41
2018-07-16T06:58:35.780Z,22.60
2018-07-16T07:01:05.021Z,22.76
2018-07-16T07:03:33.852Z,22.95
2018-07-16T07:06:03.261Z,23.03
2018-07-16T07:08:32.966Z,23.20
2018-07-16T07:11:01.696Z,23.39
2018-07-16T07:13:30.425Z,23.60
2018-07-16T07:15:59.502Z,23.79
2018-07-16T07:18:29.048Z,23.95
2018-07-16T07:20:57.807Z,24.10
2018-07-16T07:23:26.823Z,24.19
2018-07-16T07:25:55.891Z,24.32
2018-07-16T07:28:24.914Z,24.54
2018-07-16T07:30:53.980Z,24.72
2018-07-16T07:33:22.991Z,24.86
2018-07-16T07:35:52.113Z,25.03
2018-07-16T07:38:21.502Z,25.17
2018-07-16T07:40:50.271Z,25.26
2018-07-16T07:43:19.333Z,25.32
2018-07-16T07:45:48.128Z,25.37
2018-07-16T07:48:17.792Z,25.49
2018-07-16T07:50:46.627Z,25.59
2018-07-16T07:53:15.418Z,25.60
2018-07-16T07:55:44.205Z,25.67
2018-07-16T07:58:13.531Z,25.77
2018-07-16T08:00:42.506Z,25.91
2018-07-16T08:03:11.387Z,26.04
2018-07-16T08:05:40.192Z,26.12
2018-07-16T08:08:08.907Z,26.26
2018-07-16T08:10:38.167Z,26.42
2018-07-16T08:13:07.198Z,26.47
2018-07-16T08:15:36.293Z,26.49
2018-07-16T08:18:05.789Z,26.60
2018-07-16T08:20:35.273Z,26.56
2018-07-16T08:23:04.188Z,26.62
2018-07-16T08:25:33.280Z,26.77
2018-07-16T08:28:02.129Z,26.66
2018-07-16T08:30:30.925Z,26.79
2018-07-16T08:33:00.587Z,26.90
2018-07-16T08:35:29.705Z,26.95
2018-07-16T08:37:58.749Z,27.11
2018-07-16T08:40:27.908Z,27.23
2018-07-16T08:42:56.684Z,27.20
2018-07-16T08:45:25.484Z,27.30
2018-07-16T08:47:54.635Z,27.39
2018-07-16T08:50:23.665Z,27.54
2018-07-16T08:52:53.039Z,27.55
2018-07-16T08:55:21.770Z,27.63
2018-07-16T08:57:51.342Z,27.66
2018-07-16T09:00:20.371Z,27.70
2018-07-16T09:02:49.807Z,27.76
2018-07-16T09:05:18.544Z,27.84
2018-07-16T09:07:47.627Z,27.93
2018-07-16T09:10:17.161Z,28.00
2018-07-16T09:12:45.949Z,28.18
2018-07-16T09:15:15.175Z,28.25
2018-07-16T09:17:43.988Z,28.34
2018-07-16T09:20:12.719Z,28.37
2018-07-16T09:22:41.454Z,28.53
2018-07-16T09:28:30.108Z,28.84
2018-07-16T09:33:38.445Z,29.19
2018-07-16T09:36:21.561Z,29.29
2018-07-16T09:38:57.112Z,29.39
2018-07-16T09:41:31.627Z,29.43
2018-07-16T09:44:02.967Z,29.56
2018-07-16T09:46:32.163Z,29.68
2018-07-16T09:49:11.905Z,29.56
2018-07-16T09:51:41.368Z,29.65
2018-07-16T09:54:55.767Z,29.91
2018-07-16T09:57:35.857Z,30.22
2018-07-16T10:00:32.002Z,30.27
2018-07-16T10:08:55.869Z,30.55
2018-07-16T10:11:28.326Z,30.64
2018-07-16T10:14:06.652Z,30.76
2018-07-16T10:16:35.879Z,31.01
2018-07-16T10:19:12.636Z,31.27
2018-07-16T10:21:42.804Z,31.46
2018-07-16T10:24:12.017Z,31.31
2018-07-16T10:26:41.051Z,31.29
2018-07-16T10:29:10.455Z,31.26
2018-07-16T10:31:39.937Z,31.09
2018-07-16T10:34:09.060Z,31.16
2018-07-16T10:36:38.319Z,31.43
2018-07-16T10:39:08.319Z,31.60
2018-07-16T10:41:38.523Z,31.81
2018-07-16T10:44:08.015Z,31.50
2018-07-16T10:46:38.188Z,31.25
2018-07-16T10:49:07.660Z,31.53
2018-07-16T10:51:37.525Z,31.72
2018-07-16T10:54:08.834Z,31.98
2018-07-16T10:56:39.590Z,32.29
2018-07-16T10:59:09.562Z,32.51
2018-07-16T11:01:38.882Z,32.77
2018-07-16T11:04:07.665Z,33.04
2018-07-16T11:06:36.648Z,33.22
2018-07-16T11:09:25.026Z,33.25
2018-07-16T11:11:59.548Z,33.11
2018-07-16T11:14:28.762Z,33.13
2018-07-16T11:16:59.131Z,33.13
2018-07-16T11:19:33.779Z,33.27
2018-07-16T11:22:03.018Z,33.59
2018-07-16T11:24:32.148Z,33.76
2018-07-16T11:27:01.605Z,33.69
2018-07-16T11:29:30.764Z,33.88
2018-07-16T11:31:59.669Z,33.56
2018-07-16T11:34:28.895Z,33.38
2018-07-16T11:36:57.903Z,33.54
2018-07-16T11:39:26.882Z,33.52
2018-07-16T11:41:55.748Z,33.75
2018-07-16T11:44:24.784Z,33.51
2018-07-16T11:46:53.498Z,33.63
2018-07-16T11:49:22.824Z,33.52
2018-07-16T11:51:51.847Z,33.59
2018-07-16T11:54:20.561Z,33.66
2018-07-16T11:57:04.027Z,33.43
2018-07-16T11:59:37.815Z,33.20
2018-07-16T12:02:21.764Z,33.33
2018-07-16T12:04:51.252Z,33.45
2018-07-16T12:07:25.808Z,33.23
2018-07-16T12:09:56.585Z,33.30
2018-07-16T12:12:41.535Z,33.24
2018-07-16T12:15:10.638Z,33.68
2018-07-16T12:17:40.047Z,33.93
2018-07-16T12:24:15.479Z,34.13
2018-07-16T12:26:44.501Z,33.97
2018-07-16T12:29:16.573Z,33.65
2018-07-16T12:31:45.416Z,33.59
2018-07-16T12:34:14.697Z,33.14
2018-07-16T12:36:43.681Z,32.96
2018-07-16T12:39:12.905Z,33.20
2018-07-16T12:41:49.421Z,33.51
2018-07-16T12:44:18.491Z,33.76
2018-07-16T12:46:48.186Z,33.88
2018-07-16T12:49:17.321Z,34.13
2018-07-16T12:51:47.264Z,34.34
2018-07-16T12:54:18.963Z,34.53
2018-07-16T12:59:27.449Z,34.33
2018-07-16T13:04:45.131Z,35.06
2018-07-16T13:07:21.437Z,35.34
2018-07-16T13:09:50.501Z,35.62
2018-07-16T13:12:21.735Z,35.89
2018-07-16T13:15:00.299Z,36.10
2018-07-16T13:17:31.426Z,36.32
2018-07-16T13:20:07.912Z,36.62
2018-07-16T13:22:39.226Z,36.64
2018-07-16T13:25:22.087Z,36.53
2018-07-16T13:27:52.473Z,36.48
2018-07-16T13:30:34.973Z,36.43
2018-07-16T13:33:26.550Z,36.26
2018-07-16T13:35:55.900Z,36.36
2018-07-16T13:38:37.750Z,36.39
2018-07-16T13:41:07.647Z,35.79
2018-07-16T13:43:36.653Z,35.63
2018-07-16T13:46:06.040Z,35.47
2018-07-16T13:48:35.210Z,35.39
2018-07-16T13:51:04.911Z,35.56
2018-07-16T13:53:34.993Z,35.78
2018-07-16T13:56:03.736Z,36.02
2018-07-16T13:58:35.013Z,36.12
2018-07-16T14:01:03.921Z,35.90
2018-07-16T14:03:33.533Z,35.49
2018-07-16T14:06:02.919Z,35.55
2018-07-16T14:08:32.027Z,35.46
2018-07-16T14:11:01.698Z,35.56
2018-07-16T14:13:30.413Z,35.37
2018-07-16T14:15:59.288Z,34.86
2018-07-16T14:18:28.103Z,34.73
2018-07-16T14:20:56.962Z,34.22
2018-07-16T14:23:26.107Z,33.98
2018-07-16T14:25:54.901Z,33.62
2018-07-16T14:28:24.600Z,33.62
2018-07-16T14:30:53.330Z,33.58
2018-07-16T14:33:22.511Z,33.77
2018-07-16T14:35:51.290Z,33.82
2018-07-16T14:38:21.326Z,33.58
2018-07-16T14:40:50.081Z,33.46
2018-07-16T14:43:18.922Z,33.56
2018-07-16T14:45:48.287Z,33.33
2018-07-16T14:48:17.557Z,33.22
2018-07-16T14:50:46.657Z,33.11
2018-07-16T14:53:39.155Z,33.21
2018-07-16T14:56:22.566Z,33.73
2018-07-16T14:58:51.407Z,33.99
2018-07-16T15:01:20.444Z,34.18
2018-07-16T15:03:49.357Z,34.35
2018-07-16T15:06:18.669Z,34.56
2018-07-16T15:08:47.786Z,34.80
2018-07-16T15:11:16.898Z,35.00
2018-07-16T15:13:45.619Z,34.90
2018-07-16T15:16:14.705Z,34.60
2018-07-16T15:18:43.839Z,34.70
2018-07-16T15:21:12.842Z,34.75
2018-07-16T15:23:41.671Z,34.53
2018-07-16T15:26:10.759Z,34.31
2018-07-16T15:28:39.538Z,34.31
2018-07-16T15:31:08.532Z,34.35
2018-07-16T15:33:37.985Z,34.23
2018-07-16T15:36:07.131Z,34.00
2018-07-16T15:38:36.183Z,33.82
2018-07-16T15:41:05.146Z,33.92
2018-07-16T15:43:33.962Z,33.88
2018-07-16T15:46:03.206Z,33.76
2018-07-16T15:48:32.226Z,34.01
2018-07-16T15:51:00.985Z,34.17
2018-07-16T15:53:30.331Z,34.04
2018-07-16T15:55:59.093Z,34.16
2018-07-16T15:58:28.079Z,34.05
2018-07-16T16:00:57.188Z,34.14
2018-07-16T16:03:26.232Z,34.21
2018-07-16T16:05:54.957Z,34.37
2018-07-16T16:08:24.041Z,34.57
2018-07-16T16:10:53.072Z,34.56
2018-07-16T16:13:21.882Z,34.55
2018-07-16T16:15:50.854Z,34.30
2018-07-16T16:18:20.240Z,34.07
2018-07-16T16:20:49.035Z,34.00
2018-07-16T16:23:18.840Z,33.94
2018-07-16T16:25:47.554Z,33.87
2018-07-16T16:28:16.310Z,33.94
2018-07-16T16:30:45.875Z,34.21
2018-07-16T16:33:14.707Z,34.21
2018-07-16T16:35:43.448Z,34.27
2018-07-16T16:38:12.245Z,34.07
2018-07-16T16:40:40.976Z,34.00
2018-07-16T16:43:09.887Z,33.99
2018-07-16T16:45:38.612Z,33.96
2018-07-16T16:48:07.702Z,33.70
2018-07-16T16:50:36.754Z,33.53
2018-07-16T16:53:05.745Z,33.48
2018-07-16T16:55:34.850Z,33.45
2018-07-16T16:58:03.872Z,33.45
2018-07-16T17:00:32.580Z,33.54
2018-07-16T17:03:03.411Z,33.50
2018-07-16T17:05:32.398Z,33.49
2018-07-16T17:08:01.138Z,33.38
2018-07-16T17:10:30.378Z,33.40
2018-07-16T17:13:01.455Z,33.20
2018-07-16T17:15:30.512Z,32.91
2018-07-16T17:17:59.291Z,32.70
2018-07-16T17:20:28.074Z,32.66
2018-07-16T17:22:56.939Z,32.50
2018-07-16T17:25:26.288Z,32.33
2018-07-16T17:27:56.605Z,32.21
2018-07-16T17:30:25.338Z,32.10
2018-07-16T17:32:55.453Z,32.06
2018-07-16T17:35:24.581Z,31.94
2018-07-16T17:37:53.389Z,31.84
2018-07-16T17:40:22.125Z,31.74
2018-07-16T17:42:50.963Z,31.62
2018-07-16T17:45:19.986Z,31.50
2018-07-16T17:47:48.971Z,31.53
2018-07-16T17:50:17.841Z,31.55
2018-07-16T17:52:46.967Z,31.48
2018-07-16T17:55:16.027Z,31.49
2018-07-16T17:57:45.162Z,31.46
2018-07-16T18:00:13.978Z,31.23
2018-07-16T18:02:42.823Z,31.12
2018-07-16T18:05:11.918Z,31.03
2018-07-16T18:07:40.871Z,30.84
2018-07-16T18:10:09.913Z,30.75
2018-07-16T18:12:40.015Z,30.77
2018-07-16T18:15:09.180Z,30.85
2018-07-16T18:17:38.533Z,30.88
2018-07-16T18:20:07.362Z,30.85
2018-07-16T18:22:36.447Z,30.78
2018-07-16T18:25:05.435Z,30.77
2018-07-16T18:27:34.632Z,30.51
2018-07-16T18:30:04.302Z,30.28
2018-07-16T18:32:33.359Z,30.10
2018-07-16T18:35:02.148Z,29.95
2018-07-16T18:37:31.505Z,29.68
2018-07-16T18:40:00.848Z,29.49
2018-07-16T18:42:29.625Z,29.28
2018-07-16T18:44:58.956Z,29.09
2018-07-16T18:47:28.370Z,29.01
2018-07-16T18:49:57.168Z,28.93
2018-07-16T18:52:25.904Z,28.74
2018-07-16T18:54:54.779Z,28.61
2018-07-16T18:57:23.867Z,28.53
2018-07-16T18:59:52.971Z,28.46
2018-07-16T19:02:22.130Z,28.42
2018-07-16T19:04:51.554Z,28.28
2018-07-16T19:07:23.047Z,28.20
2018-07-16T19:09:52.918Z,28.16
2018-07-16T19:12:21.715Z,28.12
2018-07-16T19:14:50.654Z,28.18
2018-07-16T19:17:21.065Z,28.22
2018-07-16T19:19:50.644Z,28.27
2018-07-16T19:22:20.695Z,28.26
2018-07-16T19:24:49.705Z,28.21
2018-07-16T19:27:19.107Z,28.19
2018-07-16T19:29:48.190Z,28.14
2018-07-16T19:32:16.960Z,28.09
2018-07-16T19:34:46.723Z,27.99
2018-07-16T19:37:15.555Z,27.87
2018-07-16T19:39:44.380Z,27.79
2018-07-16T19:42:13.511Z,27.73
2018-07-16T19:44:42.540Z,27.66
2018-07-16T19:47:13.266Z,27.61
2018-07-16T19:49:42.409Z,27.56
2018-07-16T19:52:11.657Z,27.50
2018-07-16T19:54:41.039Z,27.42
2018-07-16T19:57:10.485Z,27.28
2018-07-16T19:59:39.296Z,27.16
2018-07-16T20:02:09.001Z,27.03
2018-07-16T20:04:38.392Z,26.95
2018-07-16T20:07:07.197Z,26.87
2018-07-16T20:09:36.506Z,26.79
2018-07-16T20:12:05.592Z,26.72
2018-07-16T20:14:34.668Z,26.60
2018-07-16T20:17:03.401Z,26.47
2018-07-16T20:19:32.963Z,26.31
2018-07-16T20:22:01.704Z,26.09
2018-07-16T20:24:30.475Z,26.02
2018-07-16T20:26:59.374Z,25.97
2018-07-16T20:29:28.221Z,25.90
2018-07-16T20:31:57.146Z,25.87
2018-07-16T20:34:26.225Z,25.83
2018-07-16T20:36:55.028Z,25.69
2018-07-16T20:39:23.831Z,25.60
2018-07-16T20:41:52.644Z,25.48
2018-07-16T20:44:21.482Z,25.35
2018-07-16T20:46:50.244Z,25.28
2018-07-16T20:49:19.585Z,25.25
2018-07-16T20:51:48.980Z,25.15
2018-07-16T20:54:18.349Z,25.08
2018-07-16T20:56:47.429Z,24.97
2018-07-16T20:59:16.496Z,24.89
2018-07-16T21:01:45.490Z,24.84
2018-07-16T21:04:14.288Z,24.80
2018-07-16T21:06:43.321Z,24.69
2018-07-16T21:09:12.305Z,24.61
2018-07-16T21:11:41.075Z,24.57
2018-07-16T21:14:09.933Z,24.53
2018-07-16T21:16:39.345Z,24.48
2018-07-16T21:19:08.613Z,24.41
2018-07-16T21:21:37.355Z,24.37
2018-07-16T21:24:06.422Z,24.37
2018-07-16T21:26:35.261Z,24.34
2018-07-16T21:29:04.326Z,24.31
2018-07-16T21:31:35.499Z,24.27
2018-07-16T21:34:04.315Z,24.17
2018-07-16T21:36:33.434Z,24.09
2018-07-16T21:39:02.335Z,24.02
2018-07-16T21:41:31.052Z,23.95
2018-07-16T21:44:00.220Z,23.85
2018-07-16T21:46:29.547Z,23.76
2018-07-16T21:48:58.300Z,23.69
2018-07-16T21:51:27.057Z,23.66
2018-07-16T21:53:55.809Z,23.56
2018-07-16T21:56:24.542Z,23.49
2018-07-16T21:58:53.305Z,23.39
2018-07-16T22:01:22.422Z,23.29
2018-07-16T22:03:51.401Z,23.18
2018-07-16T22:06:20.399Z,23.14
2018-07-16T22:08:49.389Z,23.08
2018-07-16T22:11:18.705Z,23.00
2018-07-16T22:13:47.458Z,22.97
2018-07-16T22:16:16.639Z,22.91
2018-07-16T22:18:46.064Z,22.88
2018-07-16T22:21:14.806Z,22.87
2018-07-16T22:23:43.884Z,22.87
2018-07-16T22:26:12.916Z,22.79
2018-07-16T22:28:41.789Z,22.69
2018-07-16T22:31:10.842Z,22.65
2018-07-16T22:33:39.814Z,22.61
2018-07-16T22:36:08.618Z,22.57
2018-07-16T22:38:37.394Z,22.52
2018-07-16T22:41:06.399Z,22.47
2018-07-16T22:43:35.480Z,22.41
2018-07-16T22:46:04.555Z,22.37
2018-07-16T22:48:34.562Z,22.32
2018-07-16T22:51:05.192Z,22.29
2018-07-16T22:53:34.765Z,22.27
2018-07-16T22:56:04.370Z,22.26
2018-07-16T22:58:34.333Z,22.21
2018-07-16T23:01:03.368Z,22.17
2018-07-16T23:03:32.298Z,22.14
2018-07-16T23:06:01.038Z,22.07
2018-07-16T23:08:30.434Z,22.02
2018-07-16T23:10:59.197Z,22.00
2018-07-16T23:13:27.903Z,21.96
2018-07-16T23:15:56.603Z,21.88
2018-07-16T23:18:26.175Z,21.86
2018-07-16T23:20:55.208Z,21.83
2018-07-16T23:23:24.004Z,21.81
2018-07-16T23:25:52.742Z,21.77
2018-07-16T23:28:21.823Z,21.71
2018-07-16T23:30:50.559Z,21.67
2018-07-16T23:33:19.699Z,21.65
2018-07-16T23:35:48.639Z,21.60
2018-07-16T23:38:17.460Z,21.55
2018-07-16T23:40:46.563Z,21.51
2018-07-16T23:43:15.898Z,21.48
2018-07-16T23:45:46.106Z,21.41
2018-07-16T23:48:14.919Z,21.35
2018-07-16T23:50:43.647Z,21.30
2018-07-16T23:53:12.424Z,21.28
2018-07-16T23:55:41.228Z,21.24
2018-07-16T23:58:10.253Z,21.21
